sensor_id;sensor_type;location;lat;lon;timestamp;temperature;humidity
81842;DHT22;71284;50.918;7.092;2023-08-07T00:00:50;15.60;66.20
81842;DHT22;71284;50.918;7.092;2023-08-07T00:03:17;15.70;67.80
81842;DHT22;71284;50.918;7.092;2023-08-07T00:05:45;15.60;66.70
81842;DHT22;71284;50.918;7.092;2023-08-07T00:08:11;15.40;68.40
81842;DHT22;71284;50.918;7.092;2023-08-07T00:10:37;15.40;68.30
81842;DHT22;71284;50.918;7.092;2023-08-07T00:13:04;15.20;68.90
81842;DHT22;71284;50.918;7.092;2023-08-07T00:15:30;15.20;68.00
81842;DHT22;71284;50.918;7.092;2023-08-07T00:17:57;15.30;69.50
81842;DHT22;71284;50.918;7.092;2023-08-07T00:20:24;15.50;68.20
81842;DHT22;71284;50.918;7.092;2023-08-07T00:22:50;15.40;68.20
81842;DHT22;71284;50.918;7.092;2023-08-07T00:25:17;15.30;69.40
81842;DHT22;71284;50.918;7.092;2023-08-07T00:27:43;15.10;70.00
81842;DHT22;71284;50.918;7.092;2023-08-07T00:30:11;15.10;70.00
81842;DHT22;71284;50.918;7.092;2023-08-07T00:32:38;14.70;71.60
81842;DHT22;71284;50.918;7.092;2023-08-07T00:35:05;14.90;69.70
81842;DHT22;71284;50.918;7.092;2023-08-07T00:37:31;15.20;69.50
81842;DHT22;71284;50.918;7.092;2023-08-07T00:39:58;15.10;69.60
81842;DHT22;71284;50.918;7.092;2023-08-07T00:42:25;14.80;69.90
81842;DHT22;71284;50.918;7.092;2023-08-07T00:44:51;15.20;69.10
81842;DHT22;71284;50.918;7.092;2023-08-07T00:47:18;15.30;68.20
81842;DHT22;71284;50.918;7.092;2023-08-07T00:49:44;14.70;70.70
81842;DHT22;71284;50.918;7.092;2023-08-07T00:52:11;14.80;70.10
81842;DHT22;71284;50.918;7.092;2023-08-07T00:54:38;15.00;69.60
81842;DHT22;71284;50.918;7.092;2023-08-07T00:57:10;15.20;69.10
81842;DHT22;71284;50.918;7.092;2023-08-07T00:59:36;15.10;70.00
81842;DHT22;71284;50.918;7.092;2023-08-07T01:02:03;14.90;70.60
81842;DHT22;71284;50.918;7.092;2023-08-07T01:04:30;15.10;70.00
81842;DHT22;71284;50.918;7.092;2023-08-07T01:06:56;15.00;69.80
81842;DHT22;71284;50.918;7.092;2023-08-07T01:09:23;14.60;71.70
81842;DHT22;71284;50.918;7.092;2023-08-07T01:11:50;14.80;70.60
81842;DHT22;71284;50.918;7.092;2023-08-07T01:14:22;15.00;69.40
81842;DHT22;71284;50.918;7.092;2023-08-07T01:16:48;14.90;69.20
81842;DHT22;71284;50.918;7.092;2023-08-07T01:19:23;15.20;69.40
81842;DHT22;71284;50.918;7.092;2023-08-07T01:21:49;15.20;68.60
81842;DHT22;71284;50.918;7.092;2023-08-07T01:24:15;15.00;70.10
81842;DHT22;71284;50.918;7.092;2023-08-07T01:26:43;15.10;69.60
81842;DHT22;71284;50.918;7.092;2023-08-07T01:29:12;14.80;70.20
81842;DHT22;71284;50.918;7.092;2023-08-07T01:31:37;14.80;70.80
81842;DHT22;71284;50.918;7.092;2023-08-07T01:34:05;14.90;70.40
81842;DHT22;71284;50.918;7.092;2023-08-07T01:36:31;15.10;69.90
81842;DHT22;71284;50.918;7.092;2023-08-07T01:38:58;14.90;69.90
81842;DHT22;71284;50.918;7.092;2023-08-07T01:41:24;15.10;69.60
81842;DHT22;71284;50.918;7.092;2023-08-07T01:43:51;15.10;69.30
81842;DHT22;71284;50.918;7.092;2023-08-07T01:46:18;15.10;69.60
81842;DHT22;71284;50.918;7.092;2023-08-07T01:48:44;15.20;69.50
81842;DHT22;71284;50.918;7.092;2023-08-07T01:51:10;15.40;68.70
81842;DHT22;71284;50.918;7.092;2023-08-07T01:53:37;15.30;68.90
81842;DHT22;71284;50.918;7.092;2023-08-07T01:56:04;15.10;69.70
81842;DHT22;71284;50.918;7.092;2023-08-07T01:58:30;15.20;70.50
81842;DHT22;71284;50.918;7.092;2023-08-07T02:00:57;15.20;68.90
81842;DHT22;71284;50.918;7.092;2023-08-07T02:03:23;15.30;69.00
81842;DHT22;71284;50.918;7.092;2023-08-07T02:05:50;15.00;69.10
81842;DHT22;71284;50.918;7.092;2023-08-07T02:08:17;15.10;70.00
81842;DHT22;71284;50.918;7.092;2023-08-07T02:10:43;15.10;70.00
81842;DHT22;71284;50.918;7.092;2023-08-07T02:13:10;15.10;69.40
81842;DHT22;71284;50.918;7.092;2023-08-07T02:15:36;15.10;68.90
81842;DHT22;71284;50.918;7.092;2023-08-07T02:18:03;14.90;69.80
81842;DHT22;71284;50.918;7.092;2023-08-07T02:20:30;14.90;70.30
81842;DHT22;71284;50.918;7.092;2023-08-07T02:22:56;15.20;68.90
81842;DHT22;71284;50.918;7.092;2023-08-07T02:25:23;15.30;68.40
81842;DHT22;71284;50.918;7.092;2023-08-07T02:27:49;15.00;69.70
81842;DHT22;71284;50.918;7.092;2023-08-07T02:30:16;14.90;70.00
81842;DHT22;71284;50.918;7.092;2023-08-07T02:32:43;15.20;69.10
81842;DHT22;71284;50.918;7.092;2023-08-07T02:35:09;15.10;69.50
81842;DHT22;71284;50.918;7.092;2023-08-07T02:37:36;15.10;69.00
81842;DHT22;71284;50.918;7.092;2023-08-07T02:40:03;15.00;69.30
81842;DHT22;71284;50.918;7.092;2023-08-07T02:42:30;14.90;69.10
81842;DHT22;71284;50.918;7.092;2023-08-07T02:44:56;15.00;68.70
81842;DHT22;71284;50.918;7.092;2023-08-07T02:47:23;15.20;69.30
81842;DHT22;71284;50.918;7.092;2023-08-07T02:49:50;15.40;68.50
81842;DHT22;71284;50.918;7.092;2023-08-07T02:52:16;15.30;68.70
81842;DHT22;71284;50.918;7.092;2023-08-07T02:54:43;14.70;70.70
81842;DHT22;71284;50.918;7.092;2023-08-07T02:57:09;15.00;70.10
81842;DHT22;71284;50.918;7.092;2023-08-07T02:59:36;14.60;71.40
81842;DHT22;71284;50.918;7.092;2023-08-07T03:02:03;14.90;70.10
81842;DHT22;71284;50.918;7.092;2023-08-07T03:04:29;15.00;69.90
81842;DHT22;71284;50.918;7.092;2023-08-07T03:06:56;15.00;70.40
81842;DHT22;71284;50.918;7.092;2023-08-07T03:09:22;15.10;69.20
81842;DHT22;71284;50.918;7.092;2023-08-07T03:11:49;15.10;69.60
81842;DHT22;71284;50.918;7.092;2023-08-07T03:14:16;15.00;69.60
81842;DHT22;71284;50.918;7.092;2023-08-07T03:16:42;15.10;69.50
81842;DHT22;71284;50.918;7.092;2023-08-07T03:19:09;15.10;69.10
81842;DHT22;71284;50.918;7.092;2023-08-07T03:21:35;15.10;69.40
81842;DHT22;71284;50.918;7.092;2023-08-07T03:24:02;14.90;69.40
81842;DHT22;71284;50.918;7.092;2023-08-07T03:26:29;15.00;69.30
81842;DHT22;71284;50.918;7.092;2023-08-07T03:28:55;15.00;69.00
81842;DHT22;71284;50.918;7.092;2023-08-07T03:31:22;15.10;69.80
81842;DHT22;71284;50.918;7.092;2023-08-07T03:33:48;15.20;68.20
81842;DHT22;71284;50.918;7.092;2023-08-07T03:36:15;15.10;68.50
81842;DHT22;71284;50.918;7.092;2023-08-07T03:38:42;14.70;69.70
81842;DHT22;71284;50.918;7.092;2023-08-07T03:41:08;14.60;70.00
81842;DHT22;71284;50.918;7.092;2023-08-07T03:43:35;14.50;71.50
81842;DHT22;71284;50.918;7.092;2023-08-07T03:46:01;14.60;70.40
81842;DHT22;71284;50.918;7.092;2023-08-07T03:48:28;14.80;70.80
81842;DHT22;71284;50.918;7.092;2023-08-07T03:51:01;14.80;69.20
81842;DHT22;71284;50.918;7.092;2023-08-07T03:53:21;14.90;69.00
81842;DHT22;71284;50.918;7.092;2023-08-07T03:55:50;14.80;69.20
81842;DHT22;71284;50.918;7.092;2023-08-07T03:58:16;14.70;70.10
81842;DHT22;71284;50.918;7.092;2023-08-07T04:00:43;15.00;69.00
81842;DHT22;71284;50.918;7.092;2023-08-07T04:03:09;14.90;68.70
81842;DHT22;71284;50.918;7.092;2023-08-07T04:05:36;14.90;69.00
81842;DHT22;71284;50.918;7.092;2023-08-07T04:08:03;14.90;68.70
81842;DHT22;71284;50.918;7.092;2023-08-07T04:10:29;14.80;68.60
81842;DHT22;71284;50.918;7.092;2023-08-07T04:12:56;14.80;69.40
81842;DHT22;71284;50.918;7.092;2023-08-07T04:15:22;14.80;70.50
81842;DHT22;71284;50.918;7.092;2023-08-07T04:17:49;14.90;69.80
81842;DHT22;71284;50.918;7.092;2023-08-07T04:20:16;14.70;70.90
81842;DHT22;71284;50.918;7.092;2023-08-07T04:22:42;14.50;71.20
81842;DHT22;71284;50.918;7.092;2023-08-07T04:25:09;14.40;71.90
81842;DHT22;71284;50.918;7.092;2023-08-07T04:27:36;14.50;71.40
81842;DHT22;71284;50.918;7.092;2023-08-07T04:30:03;14.80;70.60
81842;DHT22;71284;50.918;7.092;2023-08-07T04:32:30;15.00;70.10
81842;DHT22;71284;50.918;7.092;2023-08-07T04:34:56;14.80;70.40
81842;DHT22;71284;50.918;7.092;2023-08-07T04:37:23;15.00;69.80
81842;DHT22;71284;50.918;7.092;2023-08-07T04:39:49;14.90;69.70
81842;DHT22;71284;50.918;7.092;2023-08-07T04:42:16;14.90;69.70
81842;DHT22;71284;50.918;7.092;2023-08-07T04:44:43;14.80;70.50
81842;DHT22;71284;50.918;7.092;2023-08-07T04:47:09;14.90;70.00
81842;DHT22;71284;50.918;7.092;2023-08-07T04:49:36;15.00;69.30
81842;DHT22;71284;50.918;7.092;2023-08-07T04:52:02;14.90;69.40
81842;DHT22;71284;50.918;7.092;2023-08-07T04:54:29;14.90;69.80
81842;DHT22;71284;50.918;7.092;2023-08-07T04:56:56;14.80;70.10
81842;DHT22;71284;50.918;7.092;2023-08-07T04:59:22;14.80;70.40
81842;DHT22;71284;50.918;7.092;2023-08-07T05:01:49;14.80;70.10
81842;DHT22;71284;50.918;7.092;2023-08-07T05:04:15;15.00;69.40
81842;DHT22;71284;50.918;7.092;2023-08-07T05:06:42;15.00;69.60
81842;DHT22;71284;50.918;7.092;2023-08-07T05:09:09;14.90;69.80
81842;DHT22;71284;50.918;7.092;2023-08-07T05:11:35;14.80;70.50
81842;DHT22;71284;50.918;7.092;2023-08-07T05:14:02;14.90;70.40
81842;DHT22;71284;50.918;7.092;2023-08-07T05:16:28;15.10;69.10
81842;DHT22;71284;50.918;7.092;2023-08-07T05:18:55;15.10;69.20
81842;DHT22;71284;50.918;7.092;2023-08-07T05:21:22;15.10;68.80
81842;DHT22;71284;50.918;7.092;2023-08-07T05:23:48;14.90;69.20
81842;DHT22;71284;50.918;7.092;2023-08-07T05:26:16;14.80;70.10
81842;DHT22;71284;50.918;7.092;2023-08-07T05:28:41;15.10;69.80
81842;DHT22;71284;50.918;7.092;2023-08-07T05:31:08;14.90;70.10
81842;DHT22;71284;50.918;7.092;2023-08-07T05:33:34;15.00;69.30
81842;DHT22;71284;50.918;7.092;2023-08-07T05:36:01;15.00;69.40
81842;DHT22;71284;50.918;7.092;2023-08-07T05:38:28;15.10;68.20
81842;DHT22;71284;50.918;7.092;2023-08-07T05:40:54;15.20;68.80
81842;DHT22;71284;50.918;7.092;2023-08-07T05:43:21;15.50;67.50
81842;DHT22;71284;50.918;7.092;2023-08-07T05:45:47;15.20;67.40
81842;DHT22;71284;50.918;7.092;2023-08-07T05:48:14;15.10;67.30
81842;DHT22;71284;50.918;7.092;2023-08-07T05:50:41;15.10;67.80
81842;DHT22;71284;50.918;7.092;2023-08-07T05:53:07;15.10;68.50
81842;DHT22;71284;50.918;7.092;2023-08-07T05:55:34;15.30;66.70
81842;DHT22;71284;50.918;7.092;2023-08-07T05:58:00;15.40;66.30
81842;DHT22;71284;50.918;7.092;2023-08-07T06:00:27;15.50;66.00
81842;DHT22;71284;50.918;7.092;2023-08-07T06:02:54;15.50;66.20
81842;DHT22;71284;50.918;7.092;2023-08-07T06:05:20;15.50;66.10
81842;DHT22;71284;50.918;7.092;2023-08-07T06:07:47;15.40;66.10
81842;DHT22;71284;50.918;7.092;2023-08-07T06:10:13;15.20;67.00
81842;DHT22;71284;50.918;7.092;2023-08-07T06:12:40;15.00;67.20
81842;DHT22;71284;50.918;7.092;2023-08-07T06:15:08;14.90;68.00
81842;DHT22;71284;50.918;7.092;2023-08-07T06:17:34;15.10;68.00
81842;DHT22;71284;50.918;7.092;2023-08-07T06:20:01;14.70;68.90
81842;DHT22;71284;50.918;7.092;2023-08-07T06:22:28;14.80;68.60
81842;DHT22;71284;50.918;7.092;2023-08-07T06:24:54;14.70;69.10
81842;DHT22;71284;50.918;7.092;2023-08-07T06:27:21;14.80;68.60
81842;DHT22;71284;50.918;7.092;2023-08-07T06:29:47;14.70;69.80
81842;DHT22;71284;50.918;7.092;2023-08-07T06:32:14;14.60;69.50
81842;DHT22;71284;50.918;7.092;2023-08-07T06:34:41;14.60;69.00
81842;DHT22;71284;50.918;7.092;2023-08-07T06:37:07;14.70;68.90
81842;DHT22;71284;50.918;7.092;2023-08-07T06:39:34;14.60;69.60
81842;DHT22;71284;50.918;7.092;2023-08-07T06:42:00;14.60;69.50
81842;DHT22;71284;50.918;7.092;2023-08-07T06:44:28;14.30;71.30
81842;DHT22;71284;50.918;7.092;2023-08-07T06:46:54;14.50;69.90
81842;DHT22;71284;50.918;7.092;2023-08-07T06:49:20;14.60;69.90
81842;DHT22;71284;50.918;7.092;2023-08-07T06:51:47;14.40;70.30
81842;DHT22;71284;50.918;7.092;2023-08-07T06:54:13;14.20;71.20
81842;DHT22;71284;50.918;7.092;2023-08-07T06:56:40;14.20;71.40
81842;DHT22;71284;50.918;7.092;2023-08-07T06:59:07;14.00;71.70
81842;DHT22;71284;50.918;7.092;2023-08-07T07:01:33;14.40;71.10
81842;DHT22;71284;50.918;7.092;2023-08-07T07:04:00;14.30;71.70
81842;DHT22;71284;50.918;7.092;2023-08-07T07:06:26;14.20;71.70
81842;DHT22;71284;50.918;7.092;2023-08-07T07:08:53;13.70;72.50
81842;DHT22;71284;50.918;7.092;2023-08-07T07:11:20;13.70;73.40
81842;DHT22;71284;50.918;7.092;2023-08-07T07:13:46;14.00;73.20
81842;DHT22;71284;50.918;7.092;2023-08-07T07:16:13;14.00;72.50
81842;DHT22;71284;50.918;7.092;2023-08-07T07:18:39;14.40;71.50
81842;DHT22;71284;50.918;7.092;2023-08-07T07:21:06;14.10;72.50
81842;DHT22;71284;50.918;7.092;2023-08-07T07:23:33;14.00;72.90
81842;DHT22;71284;50.918;7.092;2023-08-07T07:25:59;14.40;71.40
81842;DHT22;71284;50.918;7.092;2023-08-07T07:28:26;14.30;71.80
81842;DHT22;71284;50.918;7.092;2023-08-07T07:30:52;14.40;71.30
81842;DHT22;71284;50.918;7.092;2023-08-07T07:33:19;14.60;70.80
81842;DHT22;71284;50.918;7.092;2023-08-07T07:35:46;14.40;71.30
81842;DHT22;71284;50.918;7.092;2023-08-07T07:38:13;14.30;71.50
81842;DHT22;71284;50.918;7.092;2023-08-07T07:40:39;14.40;71.70
81842;DHT22;71284;50.918;7.092;2023-08-07T07:43:06;14.40;71.60
81842;DHT22;71284;50.918;7.092;2023-08-07T07:45:32;14.30;71.60
81842;DHT22;71284;50.918;7.092;2023-08-07T07:47:59;14.50;71.40
81842;DHT22;71284;50.918;7.092;2023-08-07T07:50:26;14.80;69.90
81842;DHT22;71284;50.918;7.092;2023-08-07T07:52:53;14.50;71.30
81842;DHT22;71284;50.918;7.092;2023-08-07T07:55:19;14.20;72.80
81842;DHT22;71284;50.918;7.092;2023-08-07T07:57:46;14.30;73.00
81842;DHT22;71284;50.918;7.092;2023-08-07T08:00:13;14.50;71.90
81842;DHT22;71284;50.918;7.092;2023-08-07T08:02:40;14.70;71.50
81842;DHT22;71284;50.918;7.092;2023-08-07T08:05:07;14.60;72.00
81842;DHT22;71284;50.918;7.092;2023-08-07T08:07:34;14.60;70.30
81842;DHT22;71284;50.918;7.092;2023-08-07T08:10:00;14.80;70.50
81842;DHT22;71284;50.918;7.092;2023-08-07T08:12:27;14.60;71.10
81842;DHT22;71284;50.918;7.092;2023-08-07T08:14:53;14.80;70.60
81842;DHT22;71284;50.918;7.092;2023-08-07T08:17:20;14.90;69.60
81842;DHT22;71284;50.918;7.092;2023-08-07T08:19:47;14.90;70.00
81842;DHT22;71284;50.918;7.092;2023-08-07T08:22:13;14.90;69.80
81842;DHT22;71284;50.918;7.092;2023-08-07T08:24:40;14.90;70.30
81842;DHT22;71284;50.918;7.092;2023-08-07T08:27:06;14.90;70.20
81842;DHT22;71284;50.918;7.092;2023-08-07T08:29:33;15.10;69.80
81842;DHT22;71284;50.918;7.092;2023-08-07T08:32:00;15.40;68.60
81842;DHT22;71284;50.918;7.092;2023-08-07T08:34:26;15.40;68.90
81842;DHT22;71284;50.918;7.092;2023-08-07T08:36:53;15.20;68.90
81842;DHT22;71284;50.918;7.092;2023-08-07T08:39:20;15.10;69.90
81842;DHT22;71284;50.918;7.092;2023-08-07T08:41:49;15.10;69.90
81842;DHT22;71284;50.918;7.092;2023-08-07T08:44:14;15.20;70.00
81842;DHT22;71284;50.918;7.092;2023-08-07T08:46:41;15.10;70.40
81842;DHT22;71284;50.918;7.092;2023-08-07T08:49:07;15.30;70.10
81842;DHT22;71284;50.918;7.092;2023-08-07T08:51:33;15.10;70.90
81842;DHT22;71284;50.918;7.092;2023-08-07T08:54:00;15.10;71.10
81842;DHT22;71284;50.918;7.092;2023-08-07T08:56:27;15.10;71.30
81842;DHT22;71284;50.918;7.092;2023-08-07T08:58:53;15.40;69.90
81842;DHT22;71284;50.918;7.092;2023-08-07T09:01:20;15.50;69.90
81842;DHT22;71284;50.918;7.092;2023-08-07T09:03:46;15.40;70.40
81842;DHT22;71284;50.918;7.092;2023-08-07T09:06:13;15.50;69.70
81842;DHT22;71284;50.918;7.092;2023-08-07T09:08:42;15.60;69.80
81842;DHT22;71284;50.918;7.092;2023-08-07T09:11:07;15.90;68.80
81842;DHT22;71284;50.918;7.092;2023-08-07T09:13:34;15.80;67.90
81842;DHT22;71284;50.918;7.092;2023-08-07T09:16:00;15.90;68.90
81842;DHT22;71284;50.918;7.092;2023-08-07T09:18:27;15.80;68.80
81842;DHT22;71284;50.918;7.092;2023-08-07T09:20:53;16.10;68.50
81842;DHT22;71284;50.918;7.092;2023-08-07T09:23:20;16.20;67.20
81842;DHT22;71284;50.918;7.092;2023-08-07T09:25:47;16.20;67.40
81842;DHT22;71284;50.918;7.092;2023-08-07T09:28:13;16.10;66.60
81842;DHT22;71284;50.918;7.092;2023-08-07T09:30:40;16.20;67.60
81842;DHT22;71284;50.918;7.092;2023-08-07T09:33:06;16.20;67.60
81842;DHT22;71284;50.918;7.092;2023-08-07T09:35:33;16.40;67.50
81842;DHT22;71284;50.918;7.092;2023-08-07T09:38:00;16.50;66.60
81842;DHT22;71284;50.918;7.092;2023-08-07T09:40:26;16.60;66.60
81842;DHT22;71284;50.918;7.092;2023-08-07T09:42:53;16.60;66.20
81842;DHT22;71284;50.918;7.092;2023-08-07T09:45:22;16.60;66.50
81842;DHT22;71284;50.918;7.092;2023-08-07T09:48:03;16.60;66.20
81842;DHT22;71284;50.918;7.092;2023-08-07T09:50:30;16.60;66.60
81842;DHT22;71284;50.918;7.092;2023-08-07T09:52:56;16.20;67.60
81842;DHT22;71284;50.918;7.092;2023-08-07T09:55:23;16.20;67.40
81842;DHT22;71284;50.918;7.092;2023-08-07T09:57:49;16.30;65.40
81842;DHT22;71284;50.918;7.092;2023-08-07T10:00:16;16.50;67.20
81842;DHT22;71284;50.918;7.092;2023-08-07T10:02:42;16.60;66.40
81842;DHT22;71284;50.918;7.092;2023-08-07T10:05:09;16.70;65.00
81842;DHT22;71284;50.918;7.092;2023-08-07T10:07:37;16.70;65.80
81842;DHT22;71284;50.918;7.092;2023-08-07T10:10:03;16.60;66.40
81842;DHT22;71284;50.918;7.092;2023-08-07T10:12:30;16.50;65.20
81842;DHT22;71284;50.918;7.092;2023-08-07T10:14:56;16.50;65.00
81842;DHT22;71284;50.918;7.092;2023-08-07T10:17:23;16.70;65.40
81842;DHT22;71284;50.918;7.092;2023-08-07T10:19:50;17.10;65.00
81842;DHT22;71284;50.918;7.092;2023-08-07T10:22:16;17.30;63.80
81842;DHT22;71284;50.918;7.092;2023-08-07T10:24:43;17.40;64.40
81842;DHT22;71284;50.918;7.092;2023-08-07T10:27:11;17.10;63.00
81842;DHT22;71284;50.918;7.092;2023-08-07T10:29:37;17.30;63.90
81842;DHT22;71284;50.918;7.092;2023-08-07T10:32:05;17.60;63.40
81842;DHT22;71284;50.918;7.092;2023-08-07T10:34:33;17.60;62.90
81842;DHT22;71284;50.918;7.092;2023-08-07T10:36:57;17.70;61.50
81842;DHT22;71284;50.918;7.092;2023-08-07T10:39:24;17.70;62.70
81842;DHT22;71284;50.918;7.092;2023-08-07T10:41:53;17.50;62.50
81842;DHT22;71284;50.918;7.092;2023-08-07T10:44:23;17.80;61.00
81842;DHT22;71284;50.918;7.092;2023-08-07T10:46:53;18.20;61.70
81842;DHT22;71284;50.918;7.092;2023-08-07T10:49:37;18.50;57.80
81842;DHT22;71284;50.918;7.092;2023-08-07T10:52:11;18.70;59.60
81842;DHT22;71284;50.918;7.092;2023-08-07T10:54:38;18.90;56.90
81842;DHT22;71284;50.918;7.092;2023-08-07T10:57:04;18.70;57.10
81842;DHT22;71284;50.918;7.092;2023-08-07T10:59:30;18.70;56.90
81842;DHT22;71284;50.918;7.092;2023-08-07T11:01:57;18.80;57.50
81842;DHT22;71284;50.918;7.092;2023-08-07T11:04:24;18.90;57.50
81842;DHT22;71284;50.918;7.092;2023-08-07T11:06:50;19.10;55.20
81842;DHT22;71284;50.918;7.092;2023-08-07T11:09:17;19.40;56.60
81842;DHT22;71284;50.918;7.092;2023-08-07T11:11:45;19.90;54.30
81842;DHT22;71284;50.918;7.092;2023-08-07T11:14:11;20.30;55.60
81842;DHT22;71284;50.918;7.092;2023-08-07T11:16:37;20.50;48.50
81842;DHT22;71284;50.918;7.092;2023-08-07T11:19:04;20.30;50.70
81842;DHT22;71284;50.918;7.092;2023-08-07T11:21:31;19.90;48.40
81842;DHT22;71284;50.918;7.092;2023-08-07T11:23:57;19.80;50.00
81842;DHT22;71284;50.918;7.092;2023-08-07T11:26:24;19.60;50.00
81842;DHT22;71284;50.918;7.092;2023-08-07T11:28:51;19.80;50.60
81842;DHT22;71284;50.918;7.092;2023-08-07T11:31:18;20.20;48.70
81842;DHT22;71284;50.918;7.092;2023-08-07T11:33:44;20.10;49.00
81842;DHT22;71284;50.918;7.092;2023-08-07T11:36:11;20.00;47.30
81842;DHT22;71284;50.918;7.092;2023-08-07T11:38:39;20.20;47.60
81842;DHT22;71284;50.918;7.092;2023-08-07T11:41:05;20.40;45.80
81842;DHT22;71284;50.918;7.092;2023-08-07T11:43:33;20.60;45.40
81842;DHT22;71284;50.918;7.092;2023-08-07T11:46:01;20.50;46.60
81842;DHT22;71284;50.918;7.092;2023-08-07T11:48:27;20.20;47.70
81842;DHT22;71284;50.918;7.092;2023-08-07T11:50:53;20.10;48.00
81842;DHT22;71284;50.918;7.092;2023-08-07T11:53:21;20.20;46.90
81842;DHT22;71284;50.918;7.092;2023-08-07T11:55:51;20.00;48.30
81842;DHT22;71284;50.918;7.092;2023-08-07T11:58:13;20.10;46.70
81842;DHT22;71284;50.918;7.092;2023-08-07T12:00:43;20.10;49.30
81842;DHT22;71284;50.918;7.092;2023-08-07T12:03:22;20.20;47.80
81842;DHT22;71284;50.918;7.092;2023-08-07T12:05:39;20.00;46.20
81842;DHT22;71284;50.918;7.092;2023-08-07T12:08:06;20.10;47.00
81842;DHT22;71284;50.918;7.092;2023-08-07T12:10:31;20.10;46.70
81842;DHT22;71284;50.918;7.092;2023-08-07T12:12:59;20.40;46.70
81842;DHT22;71284;50.918;7.092;2023-08-07T12:15:27;20.60;44.50
81842;DHT22;71284;50.918;7.092;2023-08-07T12:18:00;20.70;44.50
81842;DHT22;71284;50.918;7.092;2023-08-07T12:20:18;20.80;42.80
81842;DHT22;71284;50.918;7.092;2023-08-07T12:22:46;21.10;42.10
81842;DHT22;71284;50.918;7.092;2023-08-07T12:25:12;21.30;41.60
81842;DHT22;71284;50.918;7.092;2023-08-07T12:27:38;21.00;40.20
81842;DHT22;71284;50.918;7.092;2023-08-07T12:30:06;21.00;41.10
81842;DHT22;71284;50.918;7.092;2023-08-07T12:32:32;21.20;44.50
81842;DHT22;71284;50.918;7.092;2023-08-07T12:34:59;21.40;40.40
81842;DHT22;71284;50.918;7.092;2023-08-07T12:37:26;21.40;38.90
81842;DHT22;71284;50.918;7.092;2023-08-07T12:39:52;21.40;38.60
81842;DHT22;71284;50.918;7.092;2023-08-07T12:42:19;21.70;41.10
81842;DHT22;71284;50.918;7.092;2023-08-07T12:44:45;22.50;41.70
81842;DHT22;71284;50.918;7.092;2023-08-07T12:47:12;22.80;37.80
81842;DHT22;71284;50.918;7.092;2023-08-07T12:49:38;22.30;36.00
81842;DHT22;71284;50.918;7.092;2023-08-07T12:52:05;21.70;37.30
81842;DHT22;71284;50.918;7.092;2023-08-07T12:54:32;21.50;38.90
81842;DHT22;71284;50.918;7.092;2023-08-07T12:56:58;21.50;38.80
81842;DHT22;71284;50.918;7.092;2023-08-07T12:59:25;21.40;38.70
81842;DHT22;71284;50.918;7.092;2023-08-07T13:01:52;21.70;39.30
81842;DHT22;71284;50.918;7.092;2023-08-07T13:04:19;21.80;39.80
81842;DHT22;71284;50.918;7.092;2023-08-07T13:06:45;21.90;39.20
81842;DHT22;71284;50.918;7.092;2023-08-07T13:09:12;22.30;38.70
81842;DHT22;71284;50.918;7.092;2023-08-07T13:11:39;23.20;37.00
81842;DHT22;71284;50.918;7.092;2023-08-07T13:14:05;24.00;35.00
81842;DHT22;71284;50.918;7.092;2023-08-07T13:16:32;24.60;35.40
81842;DHT22;71284;50.918;7.092;2023-08-07T13:18:58;24.90;36.20
81842;DHT22;71284;50.918;7.092;2023-08-07T13:21:25;25.30;35.00
81842;DHT22;71284;50.918;7.092;2023-08-07T13:23:52;25.80;31.30
81842;DHT22;71284;50.918;7.092;2023-08-07T13:26:18;26.50;31.70
81842;DHT22;71284;50.918;7.092;2023-08-07T13:28:45;26.40;30.70
81842;DHT22;71284;50.918;7.092;2023-08-07T13:31:11;26.40;30.80
81842;DHT22;71284;50.918;7.092;2023-08-07T13:33:38;27.20;33.50
81842;DHT22;71284;50.918;7.092;2023-08-07T13:36:05;28.50;28.90
81842;DHT22;71284;50.918;7.092;2023-08-07T13:38:31;28.90;27.80
81842;DHT22;71284;50.918;7.092;2023-08-07T13:40:58;29.60;29.00
81842;DHT22;71284;50.918;7.092;2023-08-07T13:43:24;29.40;28.00
81842;DHT22;71284;50.918;7.092;2023-08-07T13:45:51;30.40;28.30
81842;DHT22;71284;50.918;7.092;2023-08-07T13:48:17;30.70;28.10
81842;DHT22;71284;50.918;7.092;2023-08-07T13:50:44;31.00;27.30
81842;DHT22;71284;50.918;7.092;2023-08-07T13:53:11;31.80;26.90
81842;DHT22;71284;50.918;7.092;2023-08-07T13:55:37;32.00;26.70
81842;DHT22;71284;50.918;7.092;2023-08-07T13:58:04;32.20;25.40
81842;DHT22;71284;50.918;7.092;2023-08-07T14:00:30;31.40;26.00
81842;DHT22;71284;50.918;7.092;2023-08-07T14:02:57;29.50;27.50
81842;DHT22;71284;50.918;7.092;2023-08-07T14:05:24;27.90;31.40
81842;DHT22;71284;50.918;7.092;2023-08-07T14:07:50;26.50;31.20
81842;DHT22;71284;50.918;7.092;2023-08-07T14:10:17;25.60;32.80
81842;DHT22;71284;50.918;7.092;2023-08-07T14:12:43;25.30;34.30
81842;DHT22;71284;50.918;7.092;2023-08-07T14:15:10;24.50;36.20
81842;DHT22;71284;50.918;7.092;2023-08-07T14:17:37;23.90;37.10
81842;DHT22;71284;50.918;7.092;2023-08-07T14:20:04;23.60;37.70
81842;DHT22;71284;50.918;7.092;2023-08-07T14:22:30;23.70;37.90
81842;DHT22;71284;50.918;7.092;2023-08-07T14:24:57;23.90;38.50
81842;DHT22;71284;50.918;7.092;2023-08-07T14:27:23;23.70;37.50
81842;DHT22;71284;50.918;7.092;2023-08-07T14:29:50;23.70;38.00
81842;DHT22;71284;50.918;7.092;2023-08-07T14:32:17;23.30;38.90
81842;DHT22;71284;50.918;7.092;2023-08-07T14:34:43;22.80;40.20
81842;DHT22;71284;50.918;7.092;2023-08-07T14:37:10;22.40;39.60
81842;DHT22;71284;50.918;7.092;2023-08-07T14:39:36;22.10;40.20
81842;DHT22;71284;50.918;7.092;2023-08-07T14:42:03;22.00;40.50
81842;DHT22;71284;50.918;7.092;2023-08-07T14:44:30;21.70;41.50
81842;DHT22;71284;50.918;7.092;2023-08-07T14:46:56;21.80;42.10
81842;DHT22;71284;50.918;7.092;2023-08-07T14:49:23;21.50;43.30
81842;DHT22;71284;50.918;7.092;2023-08-07T14:51:49;21.50;43.40
81842;DHT22;71284;50.918;7.092;2023-08-07T14:54:16;21.00;44.70
81842;DHT22;71284;50.918;7.092;2023-08-07T14:56:43;20.80;45.30
81842;DHT22;71284;50.918;7.092;2023-08-07T14:59:09;21.10;46.30
81842;DHT22;71284;50.918;7.092;2023-08-07T15:01:36;21.50;44.50
81842;DHT22;71284;50.918;7.092;2023-08-07T15:04:02;22.00;43.80
81842;DHT22;71284;50.918;7.092;2023-08-07T15:06:29;22.40;43.10
81842;DHT22;71284;50.918;7.092;2023-08-07T15:08:56;22.80;43.90
81842;DHT22;71284;50.918;7.092;2023-08-07T15:11:22;22.80;43.30
81842;DHT22;71284;50.918;7.092;2023-08-07T15:13:49;22.70;43.20
81842;DHT22;71284;50.918;7.092;2023-08-07T15:16:15;22.60;41.30
81842;DHT22;71284;50.918;7.092;2023-08-07T15:18:42;22.40;42.20
81842;DHT22;71284;50.918;7.092;2023-08-07T15:21:08;22.50;42.20
81842;DHT22;71284;50.918;7.092;2023-08-07T15:23:35;22.60;42.70
81842;DHT22;71284;50.918;7.092;2023-08-07T15:26:02;22.80;42.40